sensor_id;sensor_type;location;lat;lon;timestamp;P1;durP1;ratioP1;P2;durP2;ratioP2
54665;SDS011;40566;50.006;36.180;2023-09-18T00:03:40;19.05;;;10.25;;
54665;SDS011;40566;50.006;36.180;2023-09-18T00:08:41;17.10;;;9.98;;
54665;SDS011;40566;50.006;36.180;2023-09-18T00:13:41;16.60;;;9.52;;
54665;SDS011;40566;50.006;36.180;2023-09-18T00:18:42;17.27;;;9.65;;
54665;SDS011;40566;50.006;36.180;2023-09-18T00:23:44;16.65;;;9.82;;
54665;SDS011;40566;50.006;36.180;2023-09-18T00:28:46;19.02;;;9.77;;
54665;SDS011;40566;50.006;36.180;2023-09-18T00:33:47;22.20;;;10.20;;
54665;SDS011;40566;50.006;36.180;2023-09-18T00:38:48;18.83;;;10.38;;
54665;SDS011;40566;50.006;36.180;2023-09-18T00:43:49;18.40;;;10.38;;
54665;SDS011;40566;50.006;36.180;2023-09-18T00:48:49;18.85;;;11.20;;
54665;SDS011;40566;50.006;36.180;2023-09-18T00:53:50;16.23;;;10.13;;
54665;SDS011;40566;50.006;36.180;2023-09-18T00:58:51;16.83;;;10.30;;
54665;SDS011;40566;50.006;36.180;2023-09-18T01:03:52;19.85;;;10.48;;
54665;SDS011;40566;50.006;36.180;2023-09-18T01:08:53;18.05;;;10.13;;
54665;SDS011;40566;50.006;36.180;2023-09-18T01:13:54;17.48;;;10.18;;
54665;SDS011;40566;50.006;36.180;2023-09-18T01:24:55;20.90;;;11.48;;
54665;SDS011;40566;50.006;36.180;2023-09-18T01:29:56;21.83;;;11.20;;
54665;SDS011;40566;50.006;36.180;2023-09-18T01:34:56;21.23;;;11.45;;
54665;SDS011;40566;50.006;36.180;2023-09-18T01:40:00;22.20;;;11.65;;
54665;SDS011;40566;50.006;36.180;2023-09-18T01:45:03;18.17;;;11.18;;
54665;SDS011;40566;50.006;36.180;2023-09-18T01:50:05;18.70;;;11.52;;
54665;SDS011;40566;50.006;36.180;2023-09-18T01:55:06;19.33;;;11.52;;
54665;SDS011;40566;50.006;36.180;2023-09-18T02:00:08;22.38;;;11.82;;
54665;SDS011;40566;50.006;36.180;2023-09-18T02:05:09;21.58;;;12.05;;
54665;SDS011;40566;50.006;36.180;2023-09-18T02:10:10;24.83;;;12.30;;
54665;SDS011;40566;50.006;36.180;2023-09-18T02:15:12;20.02;;;11.95;;
54665;SDS011;40566;50.006;36.180;2023-09-18T02:20:13;21.05;;;11.90;;
54665;SDS011;40566;50.006;36.180;2023-09-18T02:25:14;21.77;;;12.50;;
54665;SDS011;40566;50.006;36.180;2023-09-18T02:30:14;19.30;;;12.23;;
54665;SDS011;40566;50.006;36.180;2023-09-18T02:35:15;21.25;;;11.75;;
54665;SDS011;40566;50.006;36.180;2023-09-18T02:40:15;21.63;;;11.55;;
54665;SDS011;40566;50.006;36.180;2023-09-18T02:45:16;19.23;;;11.25;;
54665;SDS011;40566;50.006;36.180;2023-09-18T02:50:17;21.15;;;11.90;;
54665;SDS011;40566;50.006;36.180;2023-09-18T02:55:17;21.00;;;11.20;;
54665;SDS011;40566;50.006;36.180;2023-09-18T03:00:18;20.63;;;12.30;;
54665;SDS011;40566;50.006;36.180;2023-09-18T03:05:18;19.58;;;11.32;;
54665;SDS011;40566;50.006;36.180;2023-09-18T03:10:19;19.30;;;11.52;;
54665;SDS011;40566;50.006;36.180;2023-09-18T03:15:19;18.70;;;11.65;;
54665;SDS011;40566;50.006;36.180;2023-09-18T03:20:24;19.00;;;10.82;;
54665;SDS011;40566;50.006;36.180;2023-09-18T03:25:29;20.77;;;11.55;;
54665;SDS011;40566;50.006;36.180;2023-09-18T03:30:29;22.17;;;12.45;;
54665;SDS011;40566;50.006;36.180;2023-09-18T03:35:31;24.33;;;13.98;;
54665;SDS011;40566;50.006;36.180;2023-09-18T03:40:31;25.52;;;14.73;;
54665;SDS011;40566;50.006;36.180;2023-09-18T03:45:32;28.08;;;15.05;;
54665;SDS011;40566;50.006;36.180;2023-09-18T03:50:33;29.30;;;16.63;;
54665;SDS011;40566;50.006;36.180;2023-09-18T03:55:33;32.97;;;18.52;;
54665;SDS011;40566;50.006;36.180;2023-09-18T04:00:34;34.20;;;18.60;;
54665;SDS011;40566;50.006;36.180;2023-09-18T04:05:35;37.40;;;17.85;;
54665;SDS011;40566;50.006;36.180;2023-09-18T04:10:35;32.15;;;17.83;;
54665;SDS011;40566;50.006;36.180;2023-09-18T04:15:37;33.65;;;18.15;;
54665;SDS011;40566;50.006;36.180;2023-09-18T04:20:37;30.05;;;17.92;;
54665;SDS011;40566;50.006;36.180;2023-09-18T04:25:38;34.42;;;18.10;;
54665;SDS011;40566;50.006;36.180;2023-09-18T04:30:39;30.15;;;17.05;;
54665;SDS011;40566;50.006;36.180;2023-09-18T04:35:40;32.13;;;17.90;;
54665;SDS011;40566;50.006;36.180;2023-09-18T04:40:41;34.58;;;18.38;;
54665;SDS011;40566;50.006;36.180;2023-09-18T04:45:41;33.10;;;18.08;;
54665;SDS011;40566;50.006;36.180;2023-09-18T04:50:43;35.20;;;18.95;;
54665;SDS011;40566;50.006;36.180;2023-09-18T04:55:45;31.65;;;17.85;;
54665;SDS011;40566;50.006;36.180;2023-09-18T05:00:56;29.70;;;18.35;;
54665;SDS011;40566;50.006;36.180;2023-09-18T05:05:57;31.30;;;17.55;;
54665;SDS011;40566;50.006;36.180;2023-09-18T05:10:58;27.48;;;16.73;;
54665;SDS011;40566;50.006;36.180;2023-09-18T05:15:59;33.60;;;17.05;;
54665;SDS011;40566;50.006;36.180;2023-09-18T05:21:01;31.00;;;16.45;;
54665;SDS011;40566;50.006;36.180;2023-09-18T05:26:02;31.48;;;16.45;;
54665;SDS011;40566;50.006;36.180;2023-09-18T05:31:03;27.30;;;15.30;;
54665;SDS011;40566;50.006;36.180;2023-09-18T05:36:04;26.88;;;15.05;;
54665;SDS011;40566;50.006;36.180;2023-09-18T05:41:04;27.08;;;14.98;;
54665;SDS011;40566;50.006;36.180;2023-09-18T05:46:05;25.65;;;14.95;;
54665;SDS011;40566;50.006;36.180;2023-09-18T05:51:06;28.05;;;14.68;;
54665;SDS011;40566;50.006;36.180;2023-09-18T05:56:07;26.80;;;14.50;;
54665;SDS011;40566;50.006;36.180;2023-09-18T06:01:09;25.42;;;14.82;;
54665;SDS011;40566;50.006;36.180;2023-09-18T06:06:10;24.85;;;14.40;;
54665;SDS011;40566;50.006;36.180;2023-09-18T06:11:11;29.55;;;13.73;;
54665;SDS011;40566;50.006;36.180;2023-09-18T06:16:11;26.92;;;14.60;;
54665;SDS011;40566;50.006;36.180;2023-09-18T06:21:12;23.83;;;13.82;;
54665;SDS011;40566;50.006;36.180;2023-09-18T06:26:12;22.90;;;11.85;;
54665;SDS011;40566;50.006;36.180;2023-09-18T06:31:14;23.52;;;12.52;;
54665;SDS011;40566;50.006;36.180;2023-09-18T06:36:17;27.25;;;12.80;;
54665;SDS011;40566;50.006;36.180;2023-09-18T06:41:17;23.55;;;12.98;;
54665;SDS011;40566;50.006;36.180;2023-09-18T06:46:18;28.13;;;12.93;;
54665;SDS011;40566;50.006;36.180;2023-09-18T06:51:18;24.00;;;13.50;;
54665;SDS011;40566;50.006;36.180;2023-09-18T06:56:19;24.77;;;14.02;;
54665;SDS011;40566;50.006;36.180;2023-09-18T07:01:20;26.55;;;13.93;;
54665;SDS011;40566;50.006;36.180;2023-09-18T07:06:22;28.65;;;14.13;;
54665;SDS011;40566;50.006;36.180;2023-09-18T07:11:22;27.00;;;12.77;;
54665;SDS011;40566;50.006;36.180;2023-09-18T07:16:23;21.35;;;12.05;;
54665;SDS011;40566;50.006;36.180;2023-09-18T07:21:24;25.75;;;12.70;;
54665;SDS011;40566;50.006;36.180;2023-09-18T07:26:24;22.27;;;11.52;;
54665;SDS011;40566;50.006;36.180;2023-09-18T07:31:25;25.92;;;11.85;;
54665;SDS011;40566;50.006;36.180;2023-09-18T07:36:25;17.98;;;8.48;;
54665;SDS011;40566;50.006;36.180;2023-09-18T07:41:26;24.27;;;9.07;;
54665;SDS011;40566;50.006;36.180;2023-09-18T07:46:27;17.42;;;7.80;;
54665;SDS011;40566;50.006;36.180;2023-09-18T07:51:27;15.07;;;7.97;;
54665;SDS011;40566;50.006;36.180;2023-09-18T07:56:28;17.23;;;7.82;;
54665;SDS011;40566;50.006;36.180;2023-09-18T08:01:28;17.80;;;7.72;;
54665;SDS011;40566;50.006;36.180;2023-09-18T08:06:31;54.50;;;10.68;;
54665;SDS011;40566;50.006;36.180;2023-09-18T08:11:32;16.98;;;7.82;;
54665;SDS011;40566;50.006;36.180;2023-09-18T08:16:33;22.13;;;8.48;;
54665;SDS011;40566;50.006;36.180;2023-09-18T08:21:33;20.25;;;9.05;;
54665;SDS011;40566;50.006;36.180;2023-09-18T08:26:34;20.40;;;9.00;;
54665;SDS011;40566;50.006;36.180;2023-09-18T08:31:34;16.30;;;8.32;;
54665;SDS011;40566;50.006;36.180;2023-09-18T08:36:35;17.33;;;8.50;;
54665;SDS011;40566;50.006;36.180;2023-09-18T08:41:38;14.52;;;7.28;;
54665;SDS011;40566;50.006;36.180;2023-09-18T08:46:42;11.98;;;6.03;;
54665;SDS011;40566;50.006;36.180;2023-09-18T08:51:43;9.07;;;4.85;;
54665;SDS011;40566;50.006;36.180;2023-09-18T08:56:45;9.13;;;4.68;;
54665;SDS011;40566;50.006;36.180;2023-09-18T09:01:45;11.45;;;4.45;;
54665;SDS011;40566;50.006;36.180;2023-09-18T09:06:48;12.15;;;5.90;;
54665;SDS011;40566;50.006;36.180;2023-09-18T09:11:49;13.65;;;5.65;;
54665;SDS011;40566;50.006;36.180;2023-09-18T09:16:51;22.30;;;9.70;;
54665;SDS011;40566;50.006;36.180;2023-09-18T09:21:52;78.65;;;26.45;;
54665;SDS011;40566;50.006;36.180;2023-09-18T09:26:57;14.70;;;6.32;;
54665;SDS011;40566;50.006;36.180;2023-09-18T09:32:14;68.47;;;25.27;;
54665;SDS011;40566;50.006;36.180;2023-09-18T09:37:19;12.18;;;5.43;;
54665;SDS011;40566;50.006;36.180;2023-09-18T09:42:20;10.25;;;4.28;;
54665;SDS011;40566;50.006;36.180;2023-09-18T09:47:25;8.32;;;4.03;;
54665;SDS011;40566;50.006;36.180;2023-09-18T09:52:25;21.45;;;10.38;;
54665;SDS011;40566;50.006;36.180;2023-09-18T09:57:26;9.00;;;4.28;;
54665;SDS011;40566;50.006;36.180;2023-09-18T10:02:27;10.55;;;4.57;;
54665;SDS011;40566;50.006;36.180;2023-09-18T10:07:27;13.73;;;4.85;;
54665;SDS011;40566;50.006;36.180;2023-09-18T10:12:28;19.30;;;9.45;;
54665;SDS011;40566;50.006;36.180;2023-09-18T10:17:30;14.65;;;5.63;;
54665;SDS011;40566;50.006;36.180;2023-09-18T10:22:37;17.88;;;6.85;;
54665;SDS011;40566;50.006;36.180;2023-09-18T10:27:40;9.93;;;4.97;;
54665;SDS011;40566;50.006;36.180;2023-09-18T10:32:46;16.00;;;7.35;;
54665;SDS011;40566;50.006;36.180;2023-09-18T10:37:48;15.82;;;4.97;;
54665;SDS011;40566;50.006;36.180;2023-09-18T10:42:51;58.33;;;24.95;;
54665;SDS011;40566;50.006;36.180;2023-09-18T10:47:57;52.65;;;23.85;;
54665;SDS011;40566;50.006;36.180;2023-09-18T10:52:58;13.77;;;5.38;;
54665;SDS011;40566;50.006;36.180;2023-09-18T10:57:59;11.32;;;4.80;;
54665;SDS011;40566;50.006;36.180;2023-09-18T11:08:27;16.13;;;9.18;;
54665;SDS011;40566;50.006;36.180;2023-09-18T11:13:39;11.93;;;6.07;;
54665;SDS011;40566;50.006;36.180;2023-09-18T11:18:42;9.20;;;4.38;;
54665;SDS011;40566;50.006;36.180;2023-09-18T11:23:43;11.00;;;5.00;;
54665;SDS011;40566;50.006;36.180;2023-09-18T11:28:43;10.60;;;4.78;;
54665;SDS011;40566;50.006;36.180;2023-09-18T11:33:50;13.93;;;5.22;;
54665;SDS011;40566;50.006;36.180;2023-09-18T11:38:56;12.63;;;4.70;;
54665;SDS011;40566;50.006;36.180;2023-09-18T11:49:11;8.23;;;4.30;;
54665;SDS011;40566;50.006;36.180;2023-09-18T11:54:12;8.02;;;3.92;;
54665;SDS011;40566;50.006;36.180;2023-09-18T11:59:13;12.43;;;5.95;;
54665;SDS011;40566;50.006;36.180;2023-09-18T12:04:14;11.70;;;5.35;;
54665;SDS011;40566;50.006;36.180;2023-09-18T12:09:17;14.60;;;4.50;;
54665;SDS011;40566;50.006;36.180;2023-09-18T12:14:20;11.00;;;4.53;;
54665;SDS011;40566;50.006;36.180;2023-09-18T12:19:21;8.07;;;4.22;;
54665;SDS011;40566;50.006;36.180;2023-09-18T12:24:25;9.18;;;4.30;;
54665;SDS011;40566;50.006;36.180;2023-09-18T12:29:26;9.23;;;4.50;;
54665;SDS011;40566;50.006;36.180;2023-09-18T12:34:27;8.48;;;4.05;;
54665;SDS011;40566;50.006;36.180;2023-09-18T12:39:31;8.77;;;4.65;;
54665;SDS011;40566;50.006;36.180;2023-09-18T12:44:33;14.13;;;4.28;;
54665;SDS011;40566;50.006;36.180;2023-09-18T12:49:34;8.57;;;3.95;;
54665;SDS011;40566;50.006;36.180;2023-09-18T12:59:46;11.75;;;5.22;;
54665;SDS011;40566;50.006;36.180;2023-09-18T13:04:53;9.55;;;4.50;;
54665;SDS011;40566;50.006;36.180;2023-09-18T13:15:00;15.32;;;7.30;;
54665;SDS011;40566;50.006;36.180;2023-09-18T13:20:09;17.02;;;5.90;;
54665;SDS011;40566;50.006;36.180;2023-09-18T13:25:18;14.13;;;4.55;;
54665;SDS011;40566;50.006;36.180;2023-09-18T13:30:23;9.73;;;4.93;;
54665;SDS011;40566;50.006;36.180;2023-09-18T13:35:24;8.90;;;4.75;;
54665;SDS011;40566;50.006;36.180;2023-09-18T13:40:25;7.72;;;4.30;;
54665;SDS011;40566;50.006;36.180;2023-09-18T13:45:26;13.18;;;6.15;;
54665;SDS011;40566;50.006;36.180;2023-09-18T13:50:27;8.85;;;4.00;;
54665;SDS011;40566;50.006;36.180;2023-09-18T13:55:27;8.40;;;4.30;;
54665;SDS011;40566;50.006;36.180;2023-09-18T14:00:28;7.22;;;3.85;;
54665;SDS011;40566;50.006;36.180;2023-09-18T14:05:29;11.75;;;5.85;;
54665;SDS011;40566;50.006;36.180;2023-09-18T14:10:30;13.65;;;7.10;;
54665;SDS011;40566;50.006;36.180;2023-09-18T14:15:31;26.33;;;10.77;;
54665;SDS011;40566;50.006;36.180;2023-09-18T14:20:32;29.02;;;14.95;;
54665;SDS011;40566;50.006;36.180;2023-09-18T14:25:32;15.20;;;6.93;;
54665;SDS011;40566;50.006;36.180;2023-09-18T14:30:34;11.57;;;4.18;;
54665;SDS011;40566;50.006;36.180;2023-09-18T14:35:34;10.70;;;4.40;;
54665;SDS011;40566;50.006;36.180;2023-09-18T14:40:36;8.57;;;4.13;;
54665;SDS011;40566;50.006;36.180;2023-09-18T14:45:37;12.80;;;4.63;;
54665;SDS011;40566;50.006;36.180;2023-09-18T14:50:38;10.18;;;4.97;;
54665;SDS011;40566;50.006;36.180;2023-09-18T14:55:38;13.02;;;4.82;;
54665;SDS011;40566;50.006;36.180;2023-09-18T15:00:40;13.35;;;5.75;;
54665;SDS011;40566;50.006;36.180;2023-09-18T15:05:41;12.38;;;6.30;;
54665;SDS011;40566;50.006;36.180;2023-09-18T15:10:41;15.98;;;7.47;;
54665;SDS011;40566;50.006;36.180;2023-09-18T15:15:42;18.52;;;10.13;;
54665;SDS011;40566;50.006;36.180;2023-09-18T15:20:43;17.88;;;7.85;;
54665;SDS011;40566;50.006;36.180;2023-09-18T15:25:44;15.25;;;8.38;;
54665;SDS011;40566;50.006;36.180;2023-09-18T15:30:45;16.70;;;8.10;;
54665;SDS011;40566;50.006;36.180;2023-09-18T15:35:46;17.75;;;7.93;;
54665;SDS011;40566;50.006;36.180;2023-09-18T15:40:47;18.63;;;8.38;;
54665;SDS011;40566;50.006;36.180;2023-09-18T15:45:49;22.42;;;8.13;;
54665;SDS011;40566;50.006;36.180;2023-09-18T15:50:49;15.20;;;7.53;;
54665;SDS011;40566;50.006;36.180;2023-09-18T15:55:51;15.52;;;7.68;;
54665;SDS011;40566;50.006;36.180;2023-09-18T16:00:51;17.50;;;7.75;;
54665;SDS011;40566;50.006;36.180;2023-09-18T16:05:52;14.70;;;6.53;;
54665;SDS011;40566;50.006;36.180;2023-09-18T16:10:53;13.52;;;6.32;;
54665;SDS011;40566;50.006;36.180;2023-09-18T16:15:54;17.05;;;7.88;;
54665;SDS011;40566;50.006;36.180;2023-09-18T16:20:56;16.88;;;8.20;;
54665;SDS011;40566;50.006;36.180;2023-09-18T16:25:56;15.73;;;7.13;;
54665;SDS011;40566;50.006;36.180;2023-09-18T16:30:57;18.98;;;7.38;;
54665;SDS011;40566;50.006;36.180;2023-09-18T16:36:04;15.43;;;8.23;;
54665;SDS011;40566;50.006;36.180;2023-09-18T16:41:05;17.63;;;8.52;;
54665;SDS011;40566;50.006;36.180;2023-09-18T16:46:06;13.40;;;8.35;;
54665;SDS011;40566;50.006;36.180;2023-09-18T16:51:07;17.25;;;7.35;;
54665;SDS011;40566;50.006;36.180;2023-09-18T16:56:09;13.30;;;6.97;;
54665;SDS011;40566;50.006;36.180;2023-09-18T17:01:10;15.00;;;7.63;;
54665;SDS011;40566;50.006;36.180;2023-09-18T17:06:11;19.55;;;9.13;;
54665;SDS011;40566;50.006;36.180;2023-09-18T17:11:12;18.55;;;8.32;;
54665;SDS011;40566;50.006;36.180;2023-09-18T17:16:12;23.02;;;9.73;;
54665;SDS011;40566;50.006;36.180;2023-09-18T17:21:14;23.45;;;9.73;;
54665;SDS011;40566;50.006;36.180;2023-09-18T17:26:15;16.50;;;8.20;;
54665;SDS011;40566;50.006;36.180;2023-09-18T17:31:16;22.08;;;9.07;;
54665;SDS011;40566;50.006;36.180;2023-09-18T17:36:18;16.35;;;8.23;;
54665;SDS011;40566;50.006;36.180;2023-09-18T17:41:18;16.70;;;8.88;;
54665;SDS011;40566;50.006;36.180;2023-09-18T17:46:19;21.30;;;9.15;;
54665;SDS011;40566;50.006;36.180;2023-09-18T17:51:20;20.65;;;9.90;;
54665;SDS011;40566;50.006;36.180;2023-09-18T17:56:21;16.42;;;8.82;;
54665;SDS011;40566;50.006;36.180;2023-09-18T18:01:22;14.55;;;7.32;;
54665;SDS011;40566;50.006;36.180;2023-09-18T18:06:23;15.13;;;7.80;;
54665;SDS011;40566;50.006;36.180;2023-09-18T18:11:23;14.35;;;7.60;;
54665;SDS011;40566;50.006;36.180;2023-09-18T18:16:24;13.55;;;7.28;;
54665;SDS011;40566;50.006;36.180;2023-09-18T18:21:24;16.50;;;8.70;;
54665;SDS011;40566;50.006;36.180;2023-09-18T18:26:25;15.50;;;8.50;;
54665;SDS011;40566;50.006;36.180;2023-09-18T18:31:31;14.32;;;7.68;;
54665;SDS011;40566;50.006;36.180;2023-09-18T18:36:32;15.20;;;8.20;;
54665;SDS011;40566;50.006;36.180;2023-09-18T18:41:33;16.35;;;7.65;;
54665;SDS011;40566;50.006;36.180;2023-09-18T18:46:34;14.75;;;7.93;;
54665;SDS011;40566;50.006;36.180;2023-09-18T18:51:35;14.60;;;7.72;;
54665;SDS011;40566;50.006;36.180;2023-09-18T18:56:37;15.75;;;7.95;;
54665;SDS011;40566;50.006;36.180;2023-09-18T19:01:37;15.70;;;7.95;;
54665;SDS011;40566;50.006;36.180;2023-09-18T19:06:38;17.73;;;8.95;;
54665;SDS011;40566;50.006;36.180;2023-09-18T19:11:40;19.75;;;9.63;;
54665;SDS011;40566;50.006;36.180;2023-09-18T19:16:42;19.58;;;9.02;;
54665;SDS011;40566;50.006;36.180;2023-09-18T19:21:42;20.45;;;10.38;;
54665;SDS011;40566;50.006;36.180;2023-09-18T19:26:43;16.98;;;9.65;;
54665;SDS011;40566;50.006;36.180;2023-09-18T19:31:45;18.77;;;9.85;;
54665;SDS011;40566;50.006;36.180;2023-09-18T19:36:47;21.30;;;9.85;;
54665;SDS011;40566;50.006;36.180;2023-09-18T19:41:53;19.40;;;9.70;;
54665;SDS011;40566;50.006;36.180;2023-09-18T19:46:57;16.52;;;9.10;;
54665;SDS011;40566;50.006;36.180;2023-09-18T19:51:58;17.08;;;9.57;;
54665;SDS011;40566;50.006;36.180;2023-09-18T19:57:00;19.30;;;10.48;;
54665;SDS011;40566;50.006;36.180;2023-09-18T20:02:01;21.00;;;11.32;;
54665;SDS011;40566;50.006;36.180;2023-09-18T20:07:06;20.42;;;11.73;;
54665;SDS011;40566;50.006;36.180;2023-09-18T20:12:08;24.02;;;11.52;;
54665;SDS011;40566;50.006;36.180;2023-09-18T20:17:09;19.88;;;11.07;;
54665;SDS011;40566;50.006;36.180;2023-09-18T20:22:10;21.20;;;11.07;;
54665;SDS011;40566;50.006;36.180;2023-09-18T20:27:12;19.30;;;10.05;;
54665;SDS011;40566;50.006;36.180;2023-09-18T20:32:12;19.02;;;9.93;;
54665;SDS011;40566;50.006;36.180;2023-09-18T20:37:13;16.45;;;10.00;;
54665;SDS011;40566;50.006;36.180;2023-09-18T20:42:14;16.50;;;9.45;;
54665;SDS011;40566;50.006;36.180;2023-09-18T20:47:14;19.60;;;9.38;;
54665;SDS011;40566;50.006;36.180;2023-09-18T20:52:15;16.33;;;9.30;;
54665;SDS011;40566;50.006;36.180;2023-09-18T20:57:16;16.27;;;9.32;;
54665;SDS011;40566;50.006;36.180;2023-09-18T21:02:17;19.02;;;9.13;;
54665;SDS011;40566;50.006;36.180;2023-09-18T21:07:19;16.45;;;9.27;;
54665;SDS011;40566;50.006;36.180;2023-09-18T21:12:20;16.60;;;9.18;;
54665;SDS011;40566;50.006;36.180;2023-09-18T21:17:23;15.73;;;9.00;;
54665;SDS011;40566;50.006;36.180;2023-09-18T21:22:24;15.15;;;8.48;;
54665;SDS011;40566;50.006;36.180;2023-09-18T21:27:24;15.68;;;8.98;;
54665;SDS011;40566;50.006;36.180;2023-09-18T21:32:25;16.17;;;8.90;;
54665;SDS011;40566;50.006;36.180;2023-09-18T21:37:25;16.10;;;8.80;;
54665;SDS011;40566;50.006;36.180;2023-09-18T21:42:26;18.33;;;8.73;;
54665;SDS011;40566;50.006;36.180;2023-09-18T21:47:26;14.32;;;9.07;;
54665;SDS011;40566;50.006;36.180;2023-09-18T21:52:27;18.08;;;8.68;;
54665;SDS011;40566;50.006;36.180;2023-09-18T21:57:27;15.65;;;8.85;;
54665;SDS011;40566;50.006;36.180;2023-09-18T22:02:28;15.93;;;9.02;;
54665;SDS011;40566;50.006;36.180;2023-09-18T22:07:29;14.00;;;8.18;;
54665;SDS011;40566;50.006;36.180;2023-09-18T22:12:30;15.98;;;8.65;;
54665;SDS011;40566;50.006;36.180;2023-09-18T22:17:30;13.07;;;8.15;;
54665;SDS011;40566;50.006;36.180;2023-09-18T22:22:32;15.85;;;8.70;;
54665;SDS011;40566;50.006;36.180;2023-09-18T22:27:33;17.42;;;8.75;;
54665;SDS011;40566;50.006;36.180;2023-09-18T22:32:34;16.98;;;9.38;;
54665;SDS011;40566;50.006;36.180;2023-09-18T22:37:36;16.63;;;8.93;;
54665;SDS011;40566;50.006;36.180;2023-09-18T22:58:56;17.23;;;10.05;;
54665;SDS011;40566;50.006;36.180;2023-09-18T23:03:57;23.63;;;11.20;;
54665;SDS011;40566;50.006;36.180;2023-09-18T23:08:58;19.27;;;11.25;;
54665;SDS011;40566;50.006;36.180;2023-09-18T23:13:59;26.67;;;13.20;;
54665;SDS011;40566;50.006;36.180;2023-09-18T23:19:03;19.20;;;11.18;;
54665;SDS011;40566;50.006;36.180;2023-09-18T23:24:05;24.20;;;12.00;;
54665;SDS011;40566;50.006;36.180;2023-09-18T23:29:08;22.10;;;11.18;;
54665;SDS011;40566;50.006;36.180;2023-09-18T23:34:08;23.23;;;11.38;;
54665;SDS011;40566;50.006;36.180;2023-09-18T23:39:09;22.23;;;11.23;;
54665;SDS011;40566;50.006;36.180;2023-09-18T23:44:09;22.73;;;11.32;;
54665;SDS011;40566;50.006;36.180;2023-09-18T23:49:17;20.05;;;11.13;;
54665;SDS011;40566;50.006;36.180;2023-09-18T23:54:18;20.65;;;10.75;;
54665;SDS011;40566;50.006;36.180;2023-09-18T23:59:20;19.73;;;10.75;;
